Time;durP1;ratioP1;P1;durP2;ratioP2;P2;SDS_P1;SDS_P2;PMS_P1;PMS_P2;Temp;Humidity;BMP_temperature;BMP_pressure;BME280_temperature;BME280_humidity;BME280_pressure;Samples;Min_cycle;Max_cycle;Signal;HPM_P1;HPM_P2
2022/06/26 00:00:32;;;;;;;1.60;1.20;;;16.60;99.90;17.70;96764.00;;;;5065624;28;21033;-70
2022/06/26 00:03:22;;;;;;;2.30;0.83;;;16.60;99.90;18.00;96760.00;;;;5064069;28;20219;-70
2022/06/26 00:06:11;;;;;;;0.90;0.90;;;16.60;99.90;18.00;96755.00;;;;5064407;28;20232;-70
2022/06/26 00:09:00;;;;;;;1.00;0.90;;;16.60;99.90;18.10;96764.00;;;;5068906;28;20212;-71
2022/06/26 00:11:49;;;;;;;4.40;1.33;;;16.60;99.90;18.00;96759.00;;;;5066883;28;20198;-70
2022/06/26 00:14:37;;;;;;;2.10;1.20;;;16.70;99.90;17.90;96764.00;;;;5065928;28;20220;-71
2022/06/26 00:17:26;;;;;;;0.83;0.83;;;16.60;99.90;17.90;96759.00;;;;5067020;28;20204;-70
2022/06/26 00:20:17;;;;;;;5.20;0.80;;;16.60;99.90;17.90;96762.00;;;;5069230;28;20219;-70
2022/06/26 00:23:06;;;;;;;4.47;1.23;;;16.60;99.90;17.60;96765.00;;;;5067775;28;20204;-70
2022/06/26 00:25:54;;;;;;;1.10;1.00;;;16.50;99.90;17.30;96761.00;;;;5059487;28;20231;-71
2022/06/26 00:28:43;;;;;;;3.23;1.07;;;16.50;99.90;17.40;96758.00;;;;5066732;28;20211;-70
2022/06/26 00:31:32;;;;;;;3.13;1.00;;;16.40;99.90;17.60;96769.00;;;;5067551;28;20219;-69
2022/06/26 00:34:21;;;;;;;2.50;1.40;;;16.40;99.90;17.20;96771.00;;;;5065303;28;20321;-70
2022/06/26 00:37:11;;;;;;;4.47;1.47;;;16.30;99.90;17.00;96765.00;;;;5068545;28;20200;-70
2022/06/26 00:40:00;;;;;;;4.20;1.10;;;16.20;99.90;17.00;96773.00;;;;5068975;28;20192;-71
2022/06/26 00:42:49;;;;;;;5.47;1.30;;;16.10;99.90;17.00;96766.00;;;;5068662;28;20606;-71
2022/06/26 00:45:38;;;;;;;2.97;1.30;;;16.10;99.90;16.90;96753.00;;;;5068496;28;20710;-71
2022/06/26 00:48:26;;;;;;;1.03;0.90;;;16.00;99.90;16.70;96758.00;;;;5063773;28;20204;-71
2022/06/26 00:51:15;;;;;;;1.37;1.03;;;15.90;99.90;16.70;96767.00;;;;5062789;28;20207;-70
2022/06/26 00:54:07;;;;;;;2.70;1.10;;;15.90;99.90;16.80;96760.00;;;;5067924;28;20230;-70
2022/06/26 00:56:58;;;;;;;2.83;0.87;;;15.80;99.90;17.10;96750.00;;;;5066326;28;20592;-70
2022/06/26 00:59:48;;;;;;;1.50;1.23;;;15.80;99.90;17.20;96752.00;;;;5068213;28;20222;-70
2022/06/26 01:02:37;;;;;;;1.50;0.90;;;15.80;99.90;17.30;96747.00;;;;5067610;28;20679;-71
2022/06/26 01:05:26;;;;;;;1.30;1.20;;;15.90;99.90;17.10;96754.00;;;;5068358;28;20216;-70
2022/06/26 01:08:14;;;;;;;1.30;1.20;;;15.90;99.90;17.30;96755.00;;;;5067820;28;20210;-70
2022/06/26 01:11:17;;;;;;;7.50;1.27;;;15.90;99.90;17.30;96755.00;;;;5066325;28;20207;-71
2022/06/26 01:14:06;;;;;;;1.37;1.23;;;15.90;99.90;17.30;96755.00;;;;5068118;28;20257;-70
2022/06/26 01:16:56;;;;;;;4.63;1.23;;;15.90;99.90;17.10;96756.00;;;;5067219;28;20200;-70
2022/06/26 01:19:45;;;;;;;1.50;1.40;;;15.90;99.90;17.00;96751.00;;;;5065140;28;20227;-70
2022/06/26 01:22:35;;;;;;;1.43;1.23;;;15.90;99.90;16.80;96756.00;;;;5067904;28;20216;-70
2022/06/26 01:25:24;;;;;;;2.10;1.07;;;15.90;99.90;17.10;96751.00;;;;5058832;28;20224;-71
2022/06/26 01:28:13;;;;;;;2.07;1.03;;;15.80;99.90;17.20;96760.00;;;;5067367;28;20207;-71
2022/06/26 01:31:02;;;;;;;2.30;0.97;;;15.80;99.90;17.20;96752.00;;;;5068302;28;20698;-71
2022/06/26 01:33:51;;;;;;;3.53;1.33;;;15.80;99.90;16.80;96752.00;;;;5064922;28;20286;-71
2022/06/26 01:36:40;;;;;;;1.27;1.00;;;15.80;99.90;16.30;96751.00;;;;5068426;28;20200;-70
2022/06/26 01:39:30;;;;;;;3.67;2.10;;;15.60;99.90;16.30;96754.00;;;;5067876;28;20341;-71
2022/06/26 01:42:19;;;;;;;1.37;1.27;;;15.50;99.90;16.20;96741.00;;;;5068963;28;20203;-70
2022/06/26 01:45:09;;;;;;;1.00;1.00;;;15.40;99.90;16.20;96741.00;;;;5059724;28;20575;-70
2022/06/26 01:47:58;;;;;;;3.10;1.30;;;15.30;99.90;16.20;96735.00;;;;5067486;28;20203;-70
2022/06/26 01:50:48;;;;;;;2.07;1.40;;;15.30;99.90;16.40;96740.00;;;;5066992;28;20210;-71
2022/06/26 01:53:37;;;;;;;1.00;0.90;;;15.20;99.90;16.60;96740.00;;;;5067369;28;20199;-71
2022/06/26 01:56:27;;;;;;;4.57;1.20;;;15.30;99.90;16.70;96748.00;;;;5064737;28;20273;-70
2022/06/26 01:59:16;;;;;;;6.27;3.33;;;15.30;99.90;16.60;96733.00;;;;5067613;28;20726;-70
2022/06/26 02:02:05;;;;;;;4.80;1.30;;;15.30;99.90;16.40;96746.00;;;;5069134;28;20226;-70
2022/06/26 02:04:54;;;;;;;2.20;1.40;;;15.30;99.90;16.60;96751.00;;;;5068344;28;20710;-70
2022/06/26 02:07:43;;;;;;;2.57;1.47;;;15.30;99.90;16.70;96746.00;;;;5068711;28;20207;-70
2022/06/26 02:13:41;;;;;;;1.07;1.07;;;15.30;99.90;16.30;96746.00;;;;5065544;28;20230;-70
2022/06/26 02:16:30;;;;;;;2.77;1.60;;;15.30;99.90;16.10;96756.00;;;;5066949;28;20262;-70
2022/06/26 02:19:19;;;;;;;1.20;1.10;;;15.20;99.90;16.00;96760.00;;;;5067310;28;20749;-71
2022/06/26 02:22:08;;;;;;;3.20;1.30;;;15.10;99.90;16.30;96761.00;;;;5066999;28;20215;-70
2022/06/26 02:24:57;;;;;;;1.40;1.30;;;15.10;99.90;16.50;96759.00;;;;5067544;28;20231;-70
2022/06/26 02:27:46;;;;;;;1.33;1.23;;;15.10;99.90;16.50;96758.00;;;;5066512;28;20195;-70
2022/06/26 02:30:36;;;;;;;1.90;1.13;;;15.20;99.90;16.10;96762.00;;;;5062209;28;20204;-70
2022/06/26 02:33:25;;;;;;;1.73;1.23;;;15.10;99.90;16.20;96768.00;;;;5068299;28;20204;-70
2022/06/26 02:36:14;;;;;;;2.60;1.20;;;15.10;99.90;16.00;96764.00;;;;5067107;28;20223;-70
2022/06/26 02:39:03;;;;;;;2.03;1.23;;;15.10;99.90;15.90;96760.00;;;;5067542;28;20722;-70
2022/06/26 02:41:52;;;;;;;1.10;1.00;;;15.00;99.90;15.50;96766.00;;;;5067380;28;20600;-71
2022/06/26 02:44:41;;;;;;;3.33;1.37;;;14.90;99.90;15.60;96757.00;;;;5067113;28;20223;-70
2022/06/26 02:47:31;;;;;;;5.43;1.40;;;14.80;99.90;15.60;96765.00;;;;5067062;28;20200;-70
2022/06/26 02:50:20;;;;;;;3.40;1.23;;;14.70;99.90;15.70;96772.00;;;;5067384;28;20262;-71
2022/06/26 02:53:09;;;;;;;3.27;1.53;;;14.70;99.90;16.00;96779.00;;;;5062788;28;20289;-70
2022/06/26 02:55:58;;;;;;;1.80;1.27;;;14.70;99.90;16.20;96781.00;;;;5071633;28;20227;-70
2022/06/26 02:58:47;;;;;;;1.20;1.10;;;14.80;99.90;16.20;96787.00;;;;5066742;28;20211;-71
2022/06/26 03:01:35;;;;;;;4.33;1.30;;;14.80;99.90;16.20;96782.00;;;;5066164;28;20188;-70
2022/06/26 03:04:26;;;;;;;1.23;1.13;;;14.90;99.90;15.80;96777.00;;;;5070676;28;20734;-70
2022/06/26 03:07:15;;;;;;;1.73;1.30;;;14.80;99.90;15.60;96783.00;;;;5069928;28;20211;-72
2022/06/26 03:10:04;;;;;;;3.13;1.27;;;14.80;99.90;15.70;96790.00;;;;5070217;28;20196;-71
2022/06/26 03:12:53;;;;;;;1.33;1.23;;;14.70;99.90;15.50;96777.00;;;;5071101;28;20207;-70
2022/06/26 03:15:42;;;;;;;1.40;1.30;;;14.70;99.90;15.40;96780.00;;;;5070588;28;20266;-70
2022/06/26 03:18:31;;;;;;;1.67;1.23;;;14.50;99.90;15.30;96782.00;;;;5069428;28;20215;-70
2022/06/26 03:21:21;;;;;;;1.90;1.80;;;14.50;99.90;15.40;96789.00;;;;5070852;28;20208;-71
2022/06/26 03:24:10;;;;;;;1.80;1.70;;;14.40;99.90;15.40;96788.00;;;;5069721;28;20192;-71
2022/06/26 03:26:59;;;;;;;1.37;1.27;;;14.40;99.90;15.30;96787.00;;;;5069662;28;20192;-70
2022/06/26 03:29:47;;;;;;;2.50;1.60;;;14.40;99.90;15.60;96786.00;;;;5069626;28;20211;-71
2022/06/26 03:32:36;;;;;;;1.40;1.30;;;14.40;99.90;15.60;96787.00;;;;5070372;28;20207;-71
2022/06/26 03:35:25;;;;;;;1.90;1.17;;;14.40;99.90;15.30;96791.00;;;;5066548;28;20299;-70
2022/06/26 03:38:15;;;;;;;1.67;1.50;;;14.40;99.90;15.30;96794.00;;;;5070236;28;20260;-71
2022/06/26 03:41:04;;;;;;;2.23;1.70;;;14.30;99.90;15.40;96798.00;;;;5070101;28;20766;-71
2022/06/26 03:43:53;;;;;;;1.57;1.40;;;14.30;99.90;15.70;96796.00;;;;5071179;28;20572;-71
2022/06/26 03:46:42;;;;;;;1.30;1.20;;;14.40;99.90;15.80;96795.00;;;;5060688;28;20196;-70
2022/06/26 03:49:31;;;;;;;3.53;1.37;;;14.40;99.90;15.60;96789.00;;;;5069163;28;20204;-71
2022/06/26 03:52:20;;;;;;;1.27;1.17;;;14.50;99.90;15.60;96798.00;;;;5069608;28;20207;-70
2022/06/26 03:55:11;;;;;;;2.03;1.23;;;14.50;99.90;15.50;96795.00;;;;5070396;28;20223;-71
2022/06/26 03:57:59;;;;;;;1.50;1.40;;;14.50;99.90;15.70;96798.00;;;;5065514;28;20249;-70
2022/06/26 04:00:49;;;;;;;3.23;1.60;;;14.50;99.90;15.80;96791.00;;;;5070508;28;20234;-70
2022/06/26 04:03:38;;;;;;;2.80;1.50;;;14.50;99.90;15.60;96794.00;;;;5069563;28;20196;-70
2022/06/26 04:06:27;;;;;;;2.50;1.10;;;14.60;99.90;15.50;96802.00;;;;5060193;28;20227;-71
2022/06/26 04:09:15;;;;;;;1.50;1.37;;;14.50;99.90;15.50;96798.00;;;;5069551;28;20204;-70
2022/06/26 04:12:07;;;;;;;1.70;1.60;;;14.50;99.90;15.50;96799.00;;;;5069283;28;20211;-71
2022/06/26 04:14:55;;;;;;;1.67;1.33;;;14.50;99.90;15.70;96800.00;;;;5070786;28;20224;-71
2022/06/26 04:17:44;;;;;;;1.43;1.33;;;14.50;99.90;15.70;96798.00;;;;5059291;28;20216;-71
2022/06/26 04:20:34;;;;;;;4.50;1.70;;;14.60;99.90;15.90;96794.00;;;;5069663;28;20232;-70
2022/06/26 04:23:22;;;;;;;1.53;1.33;;;14.60;99.90;16.10;96795.00;;;;5069943;28;20220;-71
2022/06/26 04:26:11;;;;;;;2.87;1.70;;;14.70;99.90;16.20;96806.00;;;;5069536;28;20226;-70
2022/06/26 04:29:01;;;;;;;4.47;1.57;;;14.80;99.90;16.30;96799.00;;;;5068519;28;20275;-71
2022/06/26 04:31:50;;;;;;;4.13;1.80;;;14.80;99.90;16.40;96813.00;;;;5069564;28;20203;-71
2022/06/26 04:34:39;;;;;;;6.23;1.83;;;14.90;99.90;16.60;96806.00;;;;5069276;28;20261;-70
2022/06/26 04:37:28;;;;;;;2.20;1.57;;;15.10;99.90;16.80;96817.00;;;;5069679;28;20219;-71
2022/06/26 04:40:17;;;;;;;2.30;1.80;;;15.20;99.90;16.70;96801.00;;;;5069641;28;20220;-71
2022/06/26 04:43:06;;;;;;;2.57;1.50;;;15.30;99.90;16.80;96810.00;;;;5067533;28;20199;-71
2022/06/26 04:45:58;;;;;;;2.43;1.40;;;15.40;99.90;16.90;96807.00;;;;5070076;28;20220;-71
2022/06/26 04:48:46;;;;;;;3.70;1.57;;;15.50;99.90;16.90;96812.00;;;;5068876;28;20207;-71
2022/06/26 04:51:36;;;;;;;1.47;1.30;;;15.60;99.90;17.10;96809.00;;;;5069380;28;20591;-71
2022/06/26 04:54:24;;;;;;;1.93;1.83;;;15.70;99.90;17.30;96805.00;;;;5070279;28;20211;-70
2022/06/26 04:57:13;;;;;;;1.77;1.27;;;15.80;99.90;17.40;96801.00;;;;5069591;28;20208;-72
2022/06/26 05:00:03;;;;;;;6.30;1.73;;;15.90;99.90;17.20;96806.00;;;;5068303;28;20687;-72
2022/06/26 05:02:53;;;;;;;2.00;1.37;;;16.00;99.90;17.50;96808.00;;;;5063613;28;20563;-70
2022/06/26 05:05:42;;;;;;;4.43;1.47;;;16.10;99.90;17.50;96808.00;;;;5068621;28;20224;-71
2022/06/26 05:08:31;;;;;;;4.13;1.87;;;16.20;99.90;17.80;96811.00;;;;5069449;28;20222;-71
2022/06/26 05:11:20;;;;;;;2.80;1.33;;;16.30;99.90;18.20;96809.00;;;;5068653;28;20518;-71
2022/06/26 05:14:09;;;;;;;1.83;1.50;;;16.40;99.90;17.80;96809.00;;;;5056077;28;20208;-71
2022/06/26 05:16:57;;;;;;;2.60;1.90;;;16.50;99.90;18.20;96804.00;;;;5067911;28;20222;-71
2022/06/26 05:19:48;;;;;;;2.90;2.70;;;16.60;99.90;18.20;96802.00;;;;5068059;28;20211;-71
2022/06/26 05:22:36;;;;;;;2.50;2.00;;;16.80;99.90;18.50;96799.00;;;;5057784;28;20208;-71
2022/06/26 05:25:25;;;;;;;4.77;1.73;;;16.90;99.90;18.60;96800.00;;;;5055951;28;20235;-71
2022/06/26 05:28:14;;;;;;;1.70;1.60;;;17.00;99.90;18.70;96805.00;;;;5059526;28;20234;-71
2022/06/26 05:31:03;;;;;;;3.43;1.90;;;17.10;99.90;18.70;96799.00;;;;5055429;28;20208;-71
2022/06/26 05:33:54;;;;;;;2.97;2.37;;;17.30;99.90;19.00;96802.00;;;;5063746;28;20703;-71
2022/06/26 05:36:44;;;;;;;3.83;1.73;;;17.40;99.90;19.20;96804.00;;;;5061419;28;20195;-71
2022/06/26 05:39:33;;;;;;;4.50;2.00;;;17.60;99.90;19.50;96806.00;;;;5063884;28;20216;-71
2022/06/26 05:42:22;;;;;;;5.33;2.40;;;17.70;99.90;19.80;96803.00;;;;5059287;28;20212;-71
2022/06/26 05:45:11;;;;;;;7.63;1.97;;;17.90;99.90;20.10;96805.00;;;;5063628;28;20228;-71
2022/06/26 05:48:01;;;;;;;3.73;2.00;;;18.10;99.90;20.40;96804.00;;;;5067259;28;20196;-71
2022/06/26 05:50:49;;;;;;;3.07;1.70;;;18.30;99.90;20.50;96799.00;;;;5064800;28;20208;-71
2022/06/26 05:53:40;;;;;;;3.07;1.87;;;18.40;99.90;20.70;96800.00;;;;5062906;28;20203;-72
2022/06/26 05:56:28;;;;;;;2.10;1.90;;;18.60;99.90;20.60;96814.00;;;;5053213;28;20233;-71
2022/06/26 05:59:17;;;;;;;7.13;1.83;;;18.80;99.90;20.80;96801.00;;;;5067185;28;20251;-71
2022/06/26 06:02:06;;;;;;;3.10;1.50;;;18.90;99.90;21.10;96803.00;;;;5068463;28;20231;-71
2022/06/26 06:04:55;;;;;;;3.90;1.50;;;19.00;99.90;21.20;96805.00;;;;5066477;28;20235;-71
2022/06/26 06:07:44;;;;;;;2.23;2.00;;;19.20;99.90;21.20;96801.00;;;;5066669;28;20215;-71
2022/06/26 06:10:34;;;;;;;4.67;2.00;;;19.30;99.90;21.40;96805.00;;;;5058023;28;20200;-72
2022/06/26 06:13:27;;;;;;;1.80;1.37;;;19.40;99.90;21.60;96810.00;;;;5062619;28;20586;-72
2022/06/26 06:16:15;;;;;;;1.53;1.33;;;19.60;99.90;21.60;96806.00;;;;5067655;28;20223;-72
2022/06/26 06:19:04;;;;;;;4.47;1.90;;;19.80;99.90;22.00;96802.00;;;;5065123;28;20212;-72
2022/06/26 06:21:53;;;;;;;4.60;1.50;;;19.90;99.90;22.20;96808.00;;;;5063462;28;20223;-72
2022/06/26 06:24:42;;;;;;;3.20;1.73;;;20.10;99.90;22.30;96804.00;;;;5065099;28;20687;-72
2022/06/26 06:27:32;;;;;;;1.50;1.40;;;20.20;99.90;22.50;96804.00;;;;5062393;28;20196;-72
2022/06/26 06:30:21;;;;;;;4.73;2.00;;;20.40;99.90;22.50;96812.00;;;;5054753;28;20193;-71
2022/06/26 06:33:10;;;;;;;5.43;1.57;;;20.50;99.90;22.60;96808.00;;;;5068459;28;20192;-71
2022/06/26 06:35:59;;;;;;;2.87;1.67;;;20.70;99.90;22.90;96817.00;;;;5069271;28;20238;-71
2022/06/26 06:38:48;;;;;;;4.83;1.50;;;20.80;99.90;22.80;96807.00;;;;5068257;28;20195;-71
2022/06/26 06:41:38;;;;;;;1.30;1.20;;;21.00;99.90;23.20;96809.00;;;;5070831;28;20232;-72
2022/06/26 06:44:28;;;;;;;1.93;1.67;;;21.10;99.90;23.40;96804.00;;;;5068003;28;20204;-71
2022/06/26 06:47:17;;;;;;;2.40;1.40;;;21.30;99.90;23.60;96800.00;;;;5063983;28;20203;-70
2022/06/26 06:50:07;;;;;;;2.27;1.37;;;21.50;99.90;23.70;96808.00;;;;5070609;28;20200;-70
2022/06/26 06:52:56;;;;;;;2.03;1.30;;;;;23.80;96807.00;;;;5068786;28;20200;-70
2022/06/26 06:55:45;;;;;;;1.60;1.13;;;;;24.00;96807.00;;;;5066272;28;20250;-70
2022/06/26 06:58:34;;;;;;;1.07;1.00;;;;;24.20;96804.00;;;;5060687;28;20209;-71
2022/06/26 07:01:24;;;;;;;1.17;1.10;;;22.20;99.90;24.20;96812.00;;;;5066738;28;20592;-70
2022/06/26 07:04:14;;;;;;;3.73;1.20;;;22.20;99.90;24.30;96816.00;;;;5070436;28;20265;-70
2022/06/26 07:07:04;;;;;;;1.47;1.27;;;22.30;99.90;24.60;96823.00;;;;5059951;28;20253;-72
2022/06/26 07:09:52;;;;;;;1.60;1.50;;;22.50;99.90;24.70;96823.00;;;;5071174;28;20203;-71
2022/06/26 07:12:41;;;;;;;2.53;1.43;;;22.60;99.90;24.70;96827.00;;;;5071506;28;20196;-70
2022/06/26 07:15:30;;;;;;;2.13;1.90;;;22.70;99.90;25.00;96824.00;;;;5061499;28;20225;-70
2022/06/26 07:18:22;;;;;;;1.80;1.70;;;22.80;99.90;25.20;96832.00;;;;5062642;28;20212;-71
2022/06/26 07:21:10;;;;;;;3.33;1.20;;;23.00;99.90;25.30;96824.00;;;;5062685;28;20675;-71
2022/06/26 07:23:59;;;;;;;3.03;1.20;;;23.10;99.90;25.40;96820.00;;;;5069562;28;20200;-70
2022/06/26 07:26:48;;;;;;;1.50;1.40;;;23.30;99.90;25.60;96824.00;;;;5059069;28;20214;-71
2022/06/26 07:29:37;;;;;;;1.23;1.13;;;23.50;99.90;25.60;96818.00;;;;5069409;28;20207;-72
2022/06/26 07:32:28;;;;;;;3.07;1.30;;;23.60;99.90;25.40;96810.00;;;;5059783;28;20200;-71
2022/06/26 07:35:18;;;;;;;2.17;1.77;;;23.70;99.90;25.70;96815.00;;;;5070327;28;20221;-70
2022/06/26 07:38:07;;;;;;;2.30;1.53;;;23.70;99.90;25.80;96815.00;;;;5070588;28;20234;-70
2022/06/26 07:40:56;;;;;;;5.17;1.10;;;23.80;99.90;26.10;96819.00;;;;5070109;28;20200;-70
2022/06/26 07:43:45;;;;;;;2.17;1.37;;;23.90;99.90;26.10;96817.00;;;;5069832;28;20210;-69
2022/06/26 07:46:34;;;;;;;2.63;1.03;;;24.00;99.90;26.20;96809.00;;;;5070306;28;20200;-68
2022/06/26 07:49:23;;;;;;;1.60;0.93;;;24.10;99.90;26.40;96812.00;;;;5069689;28;20210;-69
2022/06/26 07:52:13;;;;;;;1.10;1.00;;;24.20;99.90;26.60;96819.00;;;;5068548;28;20223;-70
2022/06/26 07:55:02;;;;;;;1.13;0.90;;;24.40;99.90;25.60;96805.00;;;;5063275;28;20221;-69
2022/06/26 07:57:51;;;;;;;2.03;1.17;;;24.40;99.90;25.90;96806.00;;;;5066175;28;20255;-70
2022/06/26 08:00:40;;;;;;;1.27;1.10;;;24.40;99.90;26.50;96807.00;;;;5064133;28;20206;-70
2022/06/26 08:03:30;;;;;;;1.10;0.70;;;24.50;99.90;26.50;96805.00;;;;5067214;28;20200;-69
2022/06/26 08:06:20;;;;;;;1.70;0.93;;;24.60;99.90;26.40;96806.00;;;;5064401;28;20398;-70
2022/06/26 08:09:10;;;;;;;1.00;0.90;;;24.70;99.90;26.60;96806.00;;;;5066316;28;20223;-70
2022/06/26 08:11:59;;;;;;;3.13;0.87;;;24.70;99.90;27.00;96809.00;;;;5061261;28;20198;-70
2022/06/26 08:14:47;;;;;;;1.17;1.07;;;24.90;99.90;27.30;96805.00;;;;5067303;28;20221;-70
2022/06/26 08:17:36;;;;;;;0.77;0.77;;;25.00;99.90;27.40;96807.00;;;;5065888;28;20205;-70
2022/06/26 08:20:25;;;;;;;1.03;0.93;;;25.20;99.90;27.60;96803.00;;;;5068739;28;20216;-70
2022/06/26 08:23:14;;;;;;;1.33;1.23;;;25.30;99.90;27.00;96800.00;;;;5062332;28;20751;-69
2022/06/26 08:26:04;;;;;;;1.90;1.27;;;25.40;99.90;27.80;96808.00;;;;5067363;28;20222;-70
2022/06/26 08:28:54;;;;;;;2.67;1.43;;;25.60;99.90;27.90;96802.00;;;;5063899;28;20658;-70
2022/06/26 08:31:42;;;;;;;1.13;1.00;;;25.70;99.90;27.90;96803.00;;;;5068231;28;20208;-69
2022/06/26 08:34:32;;;;;;;2.70;1.17;;;25.80;99.90;28.30;96808.00;;;;5066821;28;20228;-69
2022/06/26 08:37:20;;;;;;;1.30;1.20;;;26.00;99.90;28.50;96806.00;;;;5066171;28;20211;-69
2022/06/26 08:40:10;;;;;;;1.00;1.00;;;26.20;99.90;28.50;96803.00;;;;5068368;28;20220;-70
2022/06/26 08:43:05;;;;;;;4.27;1.30;;;26.30;99.90;28.30;96805.00;;;;5067008;28;20241;-69
2022/06/26 08:45:54;;;;;;;1.30;1.10;;;26.50;99.90;28.20;96802.00;;;;5061801;28;20228;-70
2022/06/26 08:48:45;;;;;;;1.83;1.00;;;26.50;99.90;28.40;96808.00;;;;5067232;28;20203;-69
2022/06/26 08:51:36;;;;;;;1.20;1.17;;;26.50;99.90;28.90;96805.00;;;;5063980;28;20225;-70
2022/06/26 08:54:28;;;;;;;1.53;1.10;;;26.70;99.90;29.10;96800.00;;;;5063635;28;20203;-70
2022/06/26 08:57:17;;;;;;;0.90;0.90;;;26.80;99.90;28.40;96817.00;;;;5066942;28;20216;-70
2022/06/26 09:00:09;;;;;;;1.47;1.20;;;26.90;99.90;28.70;96809.00;;;;5058727;28;20241;-70
2022/06/26 09:02:58;;;;;;;1.33;1.23;;;26.90;99.90;28.50;96810.00;;;;5060231;28;20489;-70
2022/06/26 09:05:47;;;;;;;1.30;1.00;;;27.00;99.90;28.70;96813.00;;;;5065667;28;20223;-71
2022/06/26 09:08:45;;;;;;;2.83;1.10;;;27.00;99.90;29.10;96813.00;;;;5068358;28;20218;-69
2022/06/26 09:11:39;;;;;;;0.90;0.90;;;27.10;99.90;29.70;96815.00;;;;5068681;28;20213;-69
2022/06/26 09:14:29;;;;;;;1.57;1.20;;;27.20;99.90;29.90;96817.00;;;;5069557;28;20199;-69
2022/06/26 09:17:23;;;;;;;3.07;1.33;;;27.40;99.90;28.80;96813.00;;;;5055041;28;20203;-70
2022/06/26 09:20:12;;;;;;;2.83;1.17;;;27.40;99.90;29.30;96817.00;;;;5068051;28;20195;-69
2022/06/26 09:23:03;;;;;;;1.20;1.10;;;27.40;99.90;29.60;96816.00;;;;5067821;28;20267;-69
2022/06/26 09:25:52;;;;;;;1.40;1.00;;;27.50;99.90;30.10;96811.00;;;;5067195;28;20223;-72
2022/06/26 09:28:41;;;;;;;1.60;1.50;;;27.70;99.90;28.80;96809.00;;;;5065068;28;20208;-70
2022/06/26 09:31:30;;;;;;;1.67;1.10;;;27.70;99.90;29.90;96819.00;;;;5064657;28;20204;-70
2022/06/26 09:34:26;;;;;;;0.80;0.80;;;27.80;99.90;29.90;96816.00;;;;5065300;28;20255;-71
2022/06/26 09:37:15;;;;;;;0.97;0.90;;;27.90;99.90;30.50;96817.00;;;;5066803;28;20200;-72
2022/06/26 09:40:16;;;;;;;2.30;1.00;;;28.10;99.90;30.50;96819.00;;;;5066635;28;20709;-71
2022/06/26 09:43:05;;;;;;;0.90;0.90;;;28.30;99.90;30.40;96815.00;;;;5063993;28;20231;-71
2022/06/26 09:45:56;;;;;;;1.10;1.10;;;28.30;99.90;30.00;96813.00;;;;5061535;28;20234;-72
2022/06/26 09:48:44;;;;;;;1.30;1.20;;;28.40;98.10;28.70;96813.00;;;;5061442;28;20207;-72
2022/06/26 09:51:35;;;;;;;1.10;0.93;;;28.30;96.90;29.90;96811.00;;;;5065965;28;20214;-71
2022/06/26 09:54:25;;;;;;;1.07;1.00;;;28.20;97.70;30.60;96803.00;;;;5063488;28;20205;-72
2022/06/26 09:57:15;;;;;;;1.30;1.20;;;28.30;97.90;30.30;96811.00;;;;5064326;28;20215;-72
2022/06/26 10:00:06;;;;;;;3.27;1.20;;;28.30;99.10;30.80;96813.00;;;;5053642;28;20690;-71
2022/06/26 10:09:11;;;;;;;3.40;1.57;;;28.30;95.30;30.10;96794.00;;;;5068026;28;20209;-70
2022/06/26 10:12:04;;;;;;;2.23;1.10;;;28.40;96.00;30.90;96803.00;;;;5066025;28;20205;-69
2022/06/26 10:14:55;;;;;;;2.20;1.00;;;28.60;98.10;30.60;96796.00;;;;5068521;28;20225;-69
2022/06/26 10:18:06;;;;;;;1.23;1.13;;;28.70;96.00;31.70;96783.00;;;;5067372;28;20209;-69
2022/06/26 10:20:58;;;;;;;1.13;0.90;;;29.00;96.00;32.00;96789.00;;;;5067013;28;20216;-69
2022/06/26 10:23:46;;;;;;;1.37;1.17;;;29.30;96.70;32.20;96794.00;;;;5063509;28;20231;-70
2022/06/26 10:26:37;;;;;;;3.13;1.13;;;29.60;95.70;32.60;96788.00;;;;5064407;28;20216;-70
2022/06/26 10:29:37;;;;;;;1.57;1.07;;;29.80;95.40;32.40;96786.00;;;;5062289;28;20195;-69
2022/06/26 10:32:26;;;;;;;2.40;1.20;;;30.10;95.40;32.20;96778.00;;;;5065201;28;20210;-70
2022/06/26 10:35:15;;;;;;;1.48;1.38;;;30.10;93.80;32.00;96786.00;;;;5063968;28;20231;-69
2022/06/26 10:38:19;;;;;;;2.15;1.00;;;30.20;93.00;32.20;96779.00;;;;5064604;28;20211;-69
2022/06/26 10:44:35;;;;;;;2.95;1.30;;;30.40;93.50;33.20;96782.00;;;;5061030;28;20238;-70
2022/06/26 10:47:24;;;;;;;2.42;1.40;;;30.50;93.10;33.40;96781.00;;;;5063637;28;20658;-70
2022/06/26 10:50:30;;;;;;;1.48;1.08;;;30.70;92.80;33.40;96769.00;;;;5062783;28;20209;-69
2022/06/26 10:53:23;;;;;;;1.00;0.95;;;30.90;91.70;33.80;96768.00;;;;5062833;28;20254;-70
2022/06/26 10:56:12;;;;;;;1.75;1.50;;;31.10;91.30;33.50;96764.00;;;;5064885;28;20236;-70
2022/06/26 10:59:03;;;;;;;2.22;1.50;;;31.20;91.00;33.70;96767.00;;;;5062812;28;20205;-70
2022/06/26 11:01:53;;;;;;;1.83;1.23;;;31.40;91.20;33.80;96763.00;;;;5062172;28;20274;-70
2022/06/26 11:04:45;;;;;;;1.25;1.15;;;31.40;90.00;33.40;96762.00;;;;5065205;28;20721;-70
2022/06/26 11:07:46;;;;;;;1.30;1.20;;;31.50;88.70;32.90;96761.00;;;;5065262;28;20571;-69
2022/06/26 11:10:35;;;;;;;3.10;1.33;;;31.40;86.80;33.10;96767.00;;;;5063979;28;20231;-66
2022/06/26 11:13:24;;;;;;;2.03;1.52;;;31.30;89.60;31.90;96754.00;;;;5063466;28;20209;-67
2022/06/26 11:16:13;;;;;;;1.95;1.08;;;31.10;85.00;32.60;96757.00;;;;5064927;28;20233;-68
2022/06/26 11:19:06;;;;;;;1.35;1.25;;;31.10;87.50;32.40;96750.00;;;;5064458;28;20239;-71
2022/06/26 11:22:05;;;;;;;1.10;1.00;;;31.00;84.40;32.50;96750.00;;;;5063585;28;20601;-68
2022/06/26 11:24:56;;;;;;;1.55;1.10;;;31.10;84.10;33.50;96745.00;;;;5064444;28;20225;-68
2022/06/26 11:27:52;;;;;;;1.30;1.20;;;31.20;84.10;33.80;96762.00;;;;5063478;28;20190;-70
2022/06/26 11:30:42;;;;;;;3.53;1.30;;;31.30;83.50;34.00;96747.00;;;;5063369;28;20206;-67
2022/06/26 11:33:33;;;;;;;3.63;1.05;;;31.50;84.70;34.70;96753.00;;;;5064701;28;20198;-69
2022/06/26 11:36:24;;;;;;;1.27;1.00;;;31.70;85.50;34.80;96756.00;;;;5062819;28;20231;-67
2022/06/26 11:39:13;;;;;;;1.00;0.88;;;32.10;84.20;33.50;96752.00;;;;5062512;28;20731;-66
2022/06/26 11:42:01;;;;;;;2.25;0.93;;;32.10;79.50;34.30;96760.00;;;;5063768;28;20213;-68
2022/06/26 11:44:51;;;;;;;2.63;1.33;;;32.20;78.80;33.30;96751.00;;;;5065818;28;20234;-66
2022/06/26 11:47:40;;;;;;;1.40;1.30;;;32.20;77.10;33.40;96750.00;;;;5065464;28;20227;-67
2022/06/26 11:50:36;;;;;;;1.17;1.08;;;32.20;76.70;34.60;96750.00;;;;5063553;28;20214;-66
2022/06/26 11:53:29;;;;;;;1.52;1.30;;;32.10;78.30;34.40;96748.00;;;;5059207;28;20500;-67
2022/06/26 11:56:21;;;;;;;1.38;1.27;;;32.20;78.30;33.80;96743.00;;;;5065069;28;20235;-67
2022/06/26 11:59:11;;;;;;;2.30;1.52;;;32.10;74.20;34.90;96743.00;;;;5068017;28;20210;-67
2022/06/26 12:01:59;;;;;;;1.77;0.93;;;32.40;77.10;33.50;96734.00;;;;5068861;28;20217;-67
2022/06/26 12:04:58;;;;;;;1.85;0.95;;;32.40;73.50;33.90;96748.00;;;;5068621;28;20229;-68
2022/06/26 12:07:49;;;;;;;1.83;1.20;;;32.10;75.10;35.20;96734.00;;;;5068401;28;20202;-68
2022/06/26 12:10:40;;;;;;;1.00;0.90;;;32.40;76.40;35.40;96734.00;;;;5068801;28;20646;-67
2022/06/26 12:13:31;;;;;;;1.30;1.08;;;32.60;77.70;35.90;96739.00;;;;5065622;28;20203;-71
2022/06/26 12:16:20;;;;;;;1.17;1.17;;;32.90;76.50;36.50;96733.00;;;;5069687;28;20220;-72
2022/06/26 12:19:09;;;;;;;1.25;1.15;;;33.30;75.30;36.40;96725.00;;;;5059581;28;20701;-70
2022/06/26 12:21:58;;;;;;;1.05;0.80;;;33.60;72.10;37.00;96723.00;;;;5061388;28;20215;-70
2022/06/26 12:24:51;;;;;;;1.20;1.10;;;33.80;70.00;34.90;96723.00;;;;5065339;28;20230;-68
2022/06/26 12:27:43;;;;;;;2.28;1.30;;;33.50;67.20;35.70;96727.00;;;;5062600;28;20412;-68
2022/06/26 12:30:34;;;;;;;1.50;1.23;;;33.60;68.80;34.30;96725.00;;;;5067506;28;20207;-67
2022/06/26 12:33:23;;;;;;;1.52;1.10;;;33.50;71.00;35.80;96730.00;;;;5067201;28;20200;-69
2022/06/26 12:36:12;;;;;;;2.47;1.30;;;33.50;67.20;34.20;96731.00;;;;5069185;28;20211;-70
2022/06/26 12:39:02;;;;;;;1.52;1.10;;;33.10;68.00;34.30;96728.00;;;;5067124;28;20206;-70
2022/06/26 12:41:58;;;;;;;2.17;1.30;;;33.10;69.50;34.40;96727.00;;;;5065207;28;20196;-69
2022/06/26 12:44:49;;;;;;;1.48;1.20;;;33.00;70.30;33.10;96725.00;;;;5068399;28;20232;-67
2022/06/26 12:47:38;;;;;;;1.20;1.10;;;32.90;67.00;33.70;96729.00;;;;5065637;28;20200;-68